首页
METAR-TAF:

METAR-TAF

机场 :

尼诺伊·阿基诺国际机场

马尼拉, 菲律宾

纬度: 14-31N, 经度: 121-00E, 海拔: 14米

当前天气观测

该预报发布于1小时和1分钟前的01:00 UTC
风速6节,风向,在东北南转南东之间变化
温度 32°C
湿度 59%
气压 1010 hPa
能见度10公里或以上
少量云层高于2500英尺
散云层高于30000英尺

METAR: RPLL 260100Z 09006KT 050V160 9999 FEW025 SCT300 32/23 Q1010 NOSIG RMK A2983

时间: 10:01 (02:01 UTC)

预报

该预报发布于3小时和1分钟前的23:00 UTC
预报有效从26日的 00点(UTC)到 27日的 06点(UTC)
风速9节,风向东转东南
能见度10公里或以上
少量云层高于2300英尺
散云层高于30000英尺
少量云层高于2200英尺, 积雨云.
散云层高于2300英尺
散云层高于10000英尺
短暂存在
从 26日的 06点(UTC)到 26日的 12点(UTC)
风速8节,风向东转东南
能見度: 9000
散云层高于2200英尺, 积雨云.
少量云层高于2300英尺
多云层高于10000英尺
小阵雨

TAF: RPLL 252300Z 2600/2706 06005KT 9999 FEW023 SCT300 TX36/2606Z TN28/2621Z TEMP0 2600/2606 12009KT FEW022CB SCT023 SCT100 TEMPO 2606/2612 11008KT 9000 -SHRA SCT022CB FEW023 BKN100

超过4000个机场的气象观测和天气预报(METAR&TAF报告)。

可查询的气象台以黄色和红色小点在地图上表示。

将鼠标移到小点上方,可查看气象台名称。

然后点击查看天气观测和预报。

如需切换地图:点击带黑十字的绿色按钮放大地图;点击带横线的绿色按钮缩小地图;或者点击绿色箭头查看邻近地区的地图。


METAR-TAF: